Time;durP1;ratioP1;P1;durP2;ratioP2;P2;SDS_P1;SDS_P2;PMS_P1;PMS_P2;Temp;Humidity;BMP_temperature;BMP_pressure;BME280_temperature;BME280_humidity;BME280_pressure;Samples;Min_cycle;Max_cycle;Signal;HPM_P1;HPM_P2
2022/01/15 00:01:15;;;;;;;;;1.00;1.00;15.30;99.90;;;;;;5018722;28;10670;-43
2022/01/15 00:03:45;;;;;;;;;1.25;1.25;15.30;99.90;;;;;;5019834;28;11215;-45
2022/01/15 00:06:16;;;;;;;;;2.00;2.00;15.30;99.90;;;;;;5002081;28;10472;-46
2022/01/15 00:08:48;;;;;;;;;1.00;1.00;15.30;99.90;;;;;;5020472;28;10502;-46
2022/01/15 00:11:19;;;;;;;;;1.00;1.00;15.30;99.90;;;;;;5013811;28;10696;-46
2022/01/15 00:13:58;;;;;;;;;2.00;2.00;15.30;99.90;;;;;;5002289;28;10535;-45
2022/01/15 00:16:44;;;;;;;;;6.00;4.75;15.30;99.90;;;;;;5016270;28;11256;-41
2022/01/15 00:19:18;;;;;;;;;24.50;24.00;15.30;99.90;;;;;;5012749;28;10822;-45
2022/01/15 00:21:49;;;;;;;;;33.50;32.00;15.50;99.90;;;;;;5015548;28;11531;-43
2022/01/15 00:24:19;;;;;;;;;25.50;25.50;15.50;99.90;;;;;;5009781;28;12278;-45
2022/01/15 00:26:50;;;;;;;;;12.75;11.75;15.50;99.90;;;;;;5001298;28;12260;-48
2022/01/15 00:29:21;;;;;;;;;4.25;4.25;15.50;99.90;;;;;;5018322;28;11634;-46
2022/01/15 00:31:52;;;;;;;;;2.50;2.50;15.50;99.90;;;;;;5021130;28;10805;-45
2022/01/15 00:34:21;;;;;;;;;2.00;2.00;15.50;99.90;;;;;;5016307;28;10689;-44
2022/01/15 00:36:52;;;;;;;;;1.00;1.00;15.50;99.90;;;;;;5018952;28;10741;-44
2022/01/15 00:39:23;;;;;;;;;1.75;1.75;15.50;99.90;;;;;;5014065;28;10567;-46
2022/01/15 00:41:55;;;;;;;;;1.50;1.50;15.50;99.90;;;;;;5011372;28;10521;-48
2022/01/15 00:44:25;;;;;;;;;1.50;1.50;15.50;99.90;;;;;;5011797;28;10599;-44
2022/01/15 00:46:56;;;;;;;;;1.00;1.00;15.50;99.90;;;;;;5017542;28;10450;-48
2022/01/15 00:49:28;;;;;;;;;1.00;1.00;15.50;99.90;;;;;;5015247;28;10550;-46
2022/01/15 00:51:58;;;;;;;;;1.25;1.25;15.50;99.90;;;;;;5017437;28;10605;-45
2022/01/15 00:54:29;;;;;;;;;1.25;1.25;15.50;99.90;;;;;;5017255;28;10463;-45
2022/01/15 00:57:01;;;;;;;;;2.00;2.00;15.50;99.90;;;;;;5017361;28;10606;-45
2022/01/15 00:59:32;;;;;;;;;2.00;2.00;15.50;99.90;;;;;;5016996;28;10664;-45
2022/01/15 01:02:02;;;;;;;;;1.75;1.75;15.50;99.90;;;;;;5013890;28;10567;-45
2022/01/15 01:04:37;;;;;;;;;3.00;3.00;15.50;99.90;;;;;;5014483;28;10556;-47
2022/01/15 01:07:08;;;;;;;;;1.75;1.75;15.40;99.90;;;;;;5016914;28;10737;-47
2022/01/15 01:12:28;;;;;;;;;1.00;1.00;15.40;99.90;;;;;;5011449;28;10739;-45
2022/01/15 01:23:29;;;;;;;;;2.00;2.00;15.40;99.90;;;;;;5015368;28;10605;-47
2022/01/15 01:26:24;;;;;;;;;2.00;2.00;15.40;99.90;;;;;;5014572;28;10703;-46
2022/01/15 01:29:16;;;;;;;;;2.00;2.00;15.30;99.90;;;;;;5015926;28;10860;-47
2022/01/15 01:32:00;;;;;;;;;3.00;3.00;15.30;99.90;;;;;;5019481;28;11019;-46
2022/01/15 01:34:34;;;;;;;;;2.00;2.00;15.30;99.90;;;;;;5005189;28;10710;-48
2022/01/15 01:37:18;;;;;;;;;3.00;3.00;15.30;99.90;;;;;;5020258;28;10981;-47
2022/01/15 01:39:56;;;;;;;;;5.25;5.25;15.30;99.90;;;;;;5016719;28;10835;-49
2022/01/15 01:42:39;;;;;;;;;7.50;7.50;15.30;99.90;;;;;;5014480;28;11132;-47
2022/01/15 01:45:13;;;;;;;;;2.00;2.00;15.20;99.90;;;;;;5002972;28;11161;-50
2022/01/15 01:47:46;;;;;;;;;8.00;6.00;15.20;99.90;;;;;;5014552;28;10989;-46
2022/01/15 01:50:23;;;;;;;;;8.00;8.00;15.20;99.90;;;;;;5005750;28;11119;-46
2022/01/15 01:52:58;;;;;;;;;6.50;6.50;15.20;99.90;;;;;;5011582;28;11247;-49
2022/01/15 01:55:30;;;;;;;;;6.50;5.75;15.20;99.90;;;;;;5007328;28;11205;-50
2022/01/15 01:58:00;;;;;;;;;4.75;4.75;15.20;99.90;;;;;;5012790;28;11139;-48
2022/01/15 02:00:31;;;;;;;;;5.00;5.00;15.20;99.90;;;;;;4996345;28;12357;-48
2022/01/15 02:03:01;;;;;;;;;4.75;4.75;15.20;99.90;;;;;;5014342;28;11102;-48
2022/01/15 02:05:32;;;;;;;;;3.25;3.25;15.10;99.90;;;;;;5012806;28;11417;-49
2022/01/15 02:08:02;;;;;;;;;5.25;5.25;15.10;99.90;;;;;;4996135;28;11231;-49
2022/01/15 02:10:34;;;;;;;;;6.75;6.75;15.10;99.90;;;;;;4996008;28;11467;-48
2022/01/15 02:13:08;;;;;;;;;8.25;7.00;15.10;99.90;;;;;;5010375;28;11157;-45
2022/01/15 02:15:41;;;;;;;;;8.00;8.00;15.00;99.90;;;;;;5010910;28;11448;-46
2022/01/15 02:18:16;;;;;;;;;17.50;16.75;15.00;99.90;;;;;;5004711;28;12177;-48
2022/01/15 02:23:34;;;;;;;;;23.50;23.50;15.00;99.90;;;;;;5014391;28;11679;-49
2022/01/15 02:26:08;;;;;;;;;13.25;12.00;15.00;99.90;;;;;;5012078;28;11536;-49
2022/01/15 02:28:44;;;;;;;;;15.00;13.75;15.00;99.90;;;;;;5016087;28;11592;-49
2022/01/15 02:31:18;;;;;;;;;11.25;10.00;14.90;99.90;;;;;;5010342;28;11435;-46
2022/01/15 02:33:53;;;;;;;;;8.50;8.50;15.00;99.90;;;;;;5011700;28;12226;-47
2022/01/15 02:36:30;;;;;;;;;6.50;6.50;14.90;99.90;;;;;;5012045;28;11492;-52
2022/01/15 02:39:02;;;;;;;;;6.00;6.00;14.90;99.90;;;;;;5012285;28;11423;-45
2022/01/15 02:41:36;;;;;;;;;7.50;6.00;14.90;99.90;;;;;;5009749;28;11452;-47
2022/01/15 02:44:16;;;;;;;;;7.00;7.00;14.90;99.90;;;;;;5015466;28;11500;-47
2022/01/15 02:49:18;;;;;;;;;6.00;6.00;14.80;99.90;;;;;;5012683;28;11500;-47
2022/01/15 02:51:50;;;;;;;;;5.00;5.00;14.80;99.90;;;;;;5013037;28;11415;-46
2022/01/15 02:54:21;;;;;;;;;4.50;4.50;14.80;99.90;;;;;;5013127;28;11640;-49
2022/01/15 02:56:52;;;;;;;;;5.00;5.00;14.80;99.90;;;;;;4999538;28;11433;-45
2022/01/15 02:59:26;;;;;;;;;4.00;4.00;14.80;99.90;;;;;;5010048;28;11422;-45
2022/01/15 03:01:56;;;;;;;;;6.50;6.50;14.80;99.90;;;;;;5010668;28;11271;-55
2022/01/15 03:04:27;;;;;;;;;13.00;13.00;14.70;99.90;;;;;;5012971;28;11453;-46
2022/01/15 03:06:58;;;;;;;;;20.50;20.50;14.70;99.90;;;;;;4994295;28;11468;-46
2022/01/15 03:09:29;;;;;;;;;22.00;20.75;14.70;99.90;;;;;;5014623;28;11524;-45
2022/01/15 03:12:02;;;;;;;;;14.75;14.75;14.70;99.90;;;;;;5009059;28;11559;-44
2022/01/15 03:14:34;;;;;;;;;10.50;7.75;14.60;99.90;;;;;;5010413;28;12269;-44
2022/01/15 03:17:06;;;;;;;;;12.50;12.50;14.60;99.90;;;;;;5010186;28;12225;-45
2022/01/15 03:19:44;;;;;;;;;11.00;11.00;14.60;99.90;;;;;;5009993;28;12223;-46
2022/01/15 03:22:15;;;;;;;;;10.50;10.50;14.60;99.90;;;;;;5011488;28;11511;-45
2022/01/15 03:24:47;;;;;;;;;17.50;17.50;14.60;99.90;;;;;;5009786;28;11647;-45
2022/01/15 03:27:23;;;;;;;;;28.50;25.25;14.60;99.90;;;;;;5007638;28;11552;-46
2022/01/15 03:29:55;;;;;;;;;17.75;17.00;14.50;99.90;;;;;;5016104;28;12379;-46
2022/01/15 03:32:29;;;;;;;;;11.00;11.00;14.50;99.90;;;;;;5011238;28;11550;-44
2022/01/15 03:34:59;;;;;;;;;19.25;17.50;14.50;99.90;;;;;;5016955;28;11466;-45
2022/01/15 03:37:29;;;;;;;;;13.50;13.50;14.50;99.90;;;;;;5014548;28;11531;-45
2022/01/15 03:39:59;;;;;;;;;9.00;9.00;14.50;99.90;;;;;;5016617;28;11548;-46
2022/01/15 03:42:29;;;;;;;;;9.00;7.00;14.40;99.90;;;;;;5001543;28;11450;-48
2022/01/15 03:45:01;;;;;;;;;5.00;5.00;14.40;99.90;;;;;;5013509;28;12235;-47
2022/01/15 03:47:31;;;;;;;;;8.25;8.25;14.40;99.90;;;;;;5019471;28;11503;-46
2022/01/15 03:50:04;;;;;;;;;9.00;9.00;14.40;99.90;;;;;;5017783;28;12139;-48
2022/01/15 03:52:34;;;;;;;;;12.25;12.25;14.30;99.90;;;;;;5017275;28;11399;-47
2022/01/15 03:55:07;;;;;;;;;11.00;11.00;14.30;99.90;;;;;;5015360;28;11489;-46
2022/01/15 03:57:39;;;;;;;;;14.75;13.75;14.30;99.90;;;;;;5018165;28;11412;-48
2022/01/15 04:00:18;;;;;;;;;11.00;11.00;14.30;99.90;;;;;;5018837;28;11700;-45
2022/01/15 04:02:50;;;;;;;;;12.50;10.75;14.30;99.90;;;;;;5018831;28;11482;-49
2022/01/15 04:05:23;;;;;;;;;12.00;12.00;14.30;99.90;;;;;;5000409;28;11483;-45
2022/01/15 04:07:53;;;;;;;;;8.50;8.50;14.30;99.90;;;;;;5013778;28;11506;-45
2022/01/15 04:10:24;;;;;;;;;11.75;10.25;14.30;99.90;;;;;;4994982;28;12219;-47
2022/01/15 04:12:55;;;;;;;;;12.50;12.25;14.30;99.90;;;;;;5013477;28;11484;-46
2022/01/15 04:15:28;;;;;;;;;15.25;15.25;14.20;99.90;;;;;;5008095;28;11510;-47
2022/01/15 04:17:59;;;;;;;;;17.75;17.75;14.20;99.90;;;;;;4982761;28;11556;-49
2022/01/15 04:20:30;;;;;;;;;21.00;21.00;14.20;99.90;;;;;;5011420;28;11597;-46
2022/01/15 04:23:00;;;;;;;;;16.25;16.25;14.20;99.90;;;;;;5009759;28;11560;-44
2022/01/15 04:25:31;;;;;;;;;13.50;13.50;14.10;99.90;;;;;;4999031;28;11570;-47
2022/01/15 04:28:07;;;;;;;;;10.00;10.00;14.10;99.90;;;;;;5013156;28;11562;-49
2022/01/15 04:30:47;;;;;;;;;17.75;17.75;14.10;99.90;;;;;;5015579;28;11521;-49
2022/01/15 04:33:18;;;;;;;;;18.75;18.75;14.10;99.90;;;;;;5016569;28;11512;-49
2022/01/15 04:35:49;;;;;;;;;16.00;14.00;14.10;99.90;;;;;;5011235;28;11611;-45
2022/01/15 04:38:22;;;;;;;;;10.25;10.25;14.00;99.90;;;;;;5012201;28;11513;-46
2022/01/15 04:40:54;;;;;;;;;12.50;12.50;14.00;99.90;;;;;;5011857;28;11534;-47
2022/01/15 04:43:25;;;;;;;;;12.00;12.00;14.00;99.90;;;;;;5013263;28;11492;-46
2022/01/15 04:45:55;;;;;;;;;13.00;13.00;13.90;99.90;;;;;;5012065;28;11475;-46
2022/01/15 04:48:26;;;;;;;;;11.75;11.75;13.90;99.90;;;;;;4994010;28;11527;-48
2022/01/15 04:50:57;;;;;;;;;14.50;14.50;13.90;99.90;;;;;;5010134;28;11576;-48
2022/01/15 04:53:28;;;;;;;;;9.75;9.75;13.80;99.90;;;;;;5015727;28;11546;-46
2022/01/15 04:55:58;;;;;;;;;10.50;9.25;13.70;99.90;;;;;;5009775;28;11631;-47
2022/01/15 04:58:30;;;;;;;;;9.25;9.25;13.80;99.90;;;;;;5015784;28;11568;-46
2022/01/15 05:01:00;;;;;;;;;11.25;10.25;13.80;99.90;;;;;;5014463;28;11965;-45
2022/01/15 05:03:33;;;;;;;;;9.25;9.25;13.80;99.90;;;;;;5017388;28;11575;-45
2022/01/15 05:06:05;;;;;;;;;10.50;10.50;13.80;99.90;;;;;;5015704;28;11571;-45
2022/01/15 05:08:37;;;;;;;;;16.25;13.75;13.80;99.90;;;;;;5011187;28;11580;-49
2022/01/15 05:11:20;;;;;;;;;21.25;20.00;13.80;99.90;;;;;;5016370;28;11517;-45
2022/01/15 05:13:50;;;;;;;;;20.25;19.25;13.80;99.90;;;;;;5017610;28;11648;-47
2022/01/15 05:16:21;;;;;;;;;18.50;18.50;13.80;99.90;;;;;;5017140;28;11596;-46
2022/01/15 05:18:51;;;;;;;;;21.50;20.00;13.70;99.90;;;;;;5014266;28;11642;-47
2022/01/15 05:21:22;;;;;;;;;23.00;20.25;13.70;99.90;;;;;;5015913;28;11567;-46
2022/01/15 05:23:53;;;;;;;;;16.00;16.00;13.70;99.90;;;;;;5015597;28;11566;-48
2022/01/15 05:26:23;;;;;;;;;23.25;22.75;13.70;99.90;;;;;;5015064;28;11570;-45
2022/01/15 05:28:54;;;;;;;;;19.00;18.25;13.60;99.90;;;;;;5013603;28;11548;-45
2022/01/15 05:31:26;;;;;;;;;15.75;15.75;13.60;99.90;;;;;;5016340;28;11551;-44
2022/01/15 05:33:58;;;;;;;;;18.50;17.75;13.60;99.90;;;;;;5016558;28;11552;-46
2022/01/15 05:36:31;;;;;;;;;16.50;15.00;13.60;99.90;;;;;;5015707;28;11521;-44
2022/01/15 05:39:02;;;;;;;;;23.50;23.50;13.60;99.90;;;;;;5014816;28;11917;-45
2022/01/15 05:41:33;;;;;;;;;25.75;24.25;13.60;99.90;;;;;;5016295;28;11531;-46
2022/01/15 05:44:03;;;;;;;;;20.75;20.75;13.60;99.90;;;;;;5012360;28;11595;-46
2022/01/15 05:46:35;;;;;;;;;16.25;16.25;13.60;99.90;;;;;;5002465;28;11614;-44
2022/01/15 05:49:07;;;;;;;;;17.25;17.25;13.50;99.90;;;;;;5014355;28;11521;-45
2022/01/15 05:51:38;;;;;;;;;12.50;12.50;13.50;99.90;;;;;;5013209;28;11587;-46
2022/01/15 05:54:10;;;;;;;;;21.25;21.25;13.50;99.90;;;;;;5012332;28;11520;-44
2022/01/15 05:56:44;;;;;;;;;20.00;18.50;13.50;99.90;;;;;;5014301;28;11575;-45
2022/01/15 05:59:14;;;;;;;;;20.00;20.00;13.50;99.90;;;;;;5005508;28;11514;-46
2022/01/15 06:01:45;;;;;;;;;21.25;21.25;13.40;99.90;;;;;;5014898;28;11575;-50
2022/01/15 06:04:16;;;;;;;;;19.25;19.25;13.40;99.90;;;;;;5014804;28;11555;-45
2022/01/15 06:06:46;;;;;;;;;20.75;20.75;13.40;99.90;;;;;;5001857;28;11539;-44
2022/01/15 06:09:22;;;;;;;;;18.00;18.00;13.30;99.90;;;;;;5017732;28;12265;-45
2022/01/15 06:11:56;;;;;;;;;17.00;17.00;13.30;99.90;;;;;;4986195;28;11759;-45
2022/01/15 06:14:26;;;;;;;;;20.25;20.25;13.30;99.90;;;;;;5014619;28;11711;-43
2022/01/15 06:16:59;;;;;;;;;19.75;18.75;13.30;99.90;;;;;;5012663;28;11576;-47
2022/01/15 06:19:30;;;;;;;;;24.50;24.00;13.30;99.90;;;;;;5014129;28;11588;-44
2022/01/15 06:22:01;;;;;;;;;23.25;23.25;13.30;99.90;;;;;;5014318;28;11692;-47
2022/01/15 06:24:31;;;;;;;;;24.75;24.25;13.30;99.90;;;;;;4998479;28;11525;-46
2022/01/15 06:27:04;;;;;;;;;21.25;20.75;13.30;99.90;;;;;;5014325;28;11537;-45
2022/01/15 06:29:35;;;;;;;;;20.25;20.25;13.20;99.90;;;;;;5015143;28;12275;-47
2022/01/15 06:32:07;;;;;;;;;26.50;23.00;13.20;99.90;;;;;;5015104;28;11582;-47
2022/01/15 06:34:39;;;;;;;;;22.75;21.00;13.20;99.90;;;;;;5013285;28;11551;-46
2022/01/15 06:37:15;;;;;;;;;18.25;18.25;13.20;99.90;;;;;;5014632;28;11536;-46
2022/01/15 06:39:47;;;;;;;;;23.50;22.50;13.20;99.90;;;;;;5015103;28;11667;-48
2022/01/15 06:42:17;;;;;;;;;16.25;16.25;13.20;99.90;;;;;;5010894;28;11603;-44
2022/01/15 06:44:48;;;;;;;;;19.50;19.50;13.10;99.90;;;;;;5011406;28;11656;-46
2022/01/15 06:47:19;;;;;;;;;17.75;17.50;13.10;99.90;;;;;;5010863;28;11577;-44
2022/01/15 06:49:51;;;;;;;;;15.00;15.00;13.10;99.90;;;;;;4979943;28;11622;-48
2022/01/15 06:52:24;;;;;;;;;20.25;20.25;13.10;99.90;;;;;;5014841;28;11546;-46
2022/01/15 06:54:54;;;;;;;;;21.00;21.00;13.10;99.90;;;;;;5013093;28;11524;-46
2022/01/15 06:57:24;;;;;;;;;19.00;19.00;13.00;99.90;;;;;;5014806;28;11713;-50
2022/01/15 06:59:55;;;;;;;;;16.75;16.00;13.00;99.90;;;;;;4996219;28;11603;-50
2022/01/15 07:02:27;;;;;;;;;16.25;16.00;13.00;99.90;;;;;;5010868;28;11665;-45
2022/01/15 07:05:00;;;;;;;;;13.25;13.25;13.00;99.90;;;;;;5010972;28;11565;-50
2022/01/15 07:07:30;;;;;;;;;14.25;14.25;12.90;99.90;;;;;;5015202;28;11583;-46
2022/01/15 07:10:02;;;;;;;;;11.50;11.50;12.90;99.90;;;;;;5013142;28;11536;-48
2022/01/15 07:12:33;;;;;;;;;13.00;11.00;12.90;99.90;;;;;;5016043;28;11552;-52
2022/01/15 07:15:05;;;;;;;;;12.00;12.00;12.80;99.90;;;;;;4995824;28;11554;-54
2022/01/15 07:17:45;;;;;;;;;8.75;8.75;12.70;99.90;;;;;;5002100;28;11530;-47
2022/01/15 07:20:21;;;;;;;;;11.00;11.00;12.80;99.90;;;;;;5013755;28;11527;-47
2022/01/15 07:22:52;;;;;;;;;8.00;8.00;12.80;99.90;;;;;;5016262;28;12316;-48
2022/01/15 07:25:23;;;;;;;;;9.50;9.50;12.80;99.90;;;;;;5015553;28;12328;-48
2022/01/15 07:27:55;;;;;;;;;1.50;1.50;12.70;99.90;;;;;;5021147;28;11528;-47
2022/01/15 07:30:29;;;;;;;;;13.25;13.25;12.60;99.90;;;;;;5011402;28;11474;-46
2022/01/15 07:32:59;;;;;;;;;12.25;12.25;12.60;99.90;;;;;;5020600;28;11569;-47
2022/01/15 07:35:30;;;;;;;;;9.50;9.50;12.60;99.90;;;;;;4985023;28;11542;-47
2022/01/15 07:38:01;;;;;;;;;6.25;6.25;12.60;99.90;;;;;;5017780;28;11556;-45
2022/01/15 07:40:33;;;;;;;;;8.25;8.25;12.60;99.90;;;;;;5016723;28;11662;-45
2022/01/15 07:43:04;;;;;;;;;8.00;8.00;12.60;99.90;;;;;;5012713;28;12707;-48
2022/01/15 07:45:35;;;;;;;;;8.00;8.00;12.60;99.90;;;;;;5011857;28;12249;-45
2022/01/15 07:48:05;;;;;;;;;8.50;8.50;12.60;99.90;;;;;;4996826;28;11499;-46
2022/01/15 07:50:35;;;;;;;;;4.50;4.50;12.50;99.90;;;;;;5012691;28;11472;-47
2022/01/15 07:53:06;;;;;;;;;12.25;9.00;12.50;99.90;;;;;;5016692;28;12221;-48
2022/01/15 07:55:37;;;;;;;;;4.75;4.75;12.40;99.90;;;;;;5020108;28;11555;-48
2022/01/15 07:58:08;;;;;;;;;6.00;6.00;12.40;99.90;;;;;;5015441;28;11528;-45
2022/01/15 08:00:42;;;;;;;;;7.00;7.00;12.40;99.90;;;;;;5016505;28;11510;-44
2022/01/15 08:03:15;;;;;;;;;7.00;7.00;12.30;99.90;;;;;;5018241;28;11472;-47
2022/01/15 08:05:45;;;;;;;;;7.50;7.50;12.30;99.90;;;;;;5015481;28;11507;-45
2022/01/15 08:08:15;;;;;;;;;11.00;11.00;12.30;99.90;;;;;;5004979;28;12257;-45
2022/01/15 08:10:46;;;;;;;;;12.00;12.00;12.30;99.90;;;;;;5013185;28;11548;-44
2022/01/15 08:13:18;;;;;;;;;16.00;16.00;12.30;99.90;;;;;;4999145;28;11597;-47
2022/01/15 08:15:51;;;;;;;;;19.67;19.67;12.30;99.90;;;;;;5016471;28;11527;-46
2022/01/15 08:18:21;;;;;;;;;24.00;24.00;12.20;99.90;;;;;;5014913;28;8846;-46
2022/01/15 08:20:52;;;;;;;;;26.33;26.33;12.20;99.90;;;;;;5017904;28;11477;-44
2022/01/15 08:23:23;;;;;;;;;27.00;27.00;12.20;99.90;;;;;;5013857;28;8838;-45
2022/01/15 08:25:54;;;;;;;;;24.67;24.33;12.10;99.90;;;;;;5018069;28;8873;-45
2022/01/15 08:28:26;;;;;;;;;23.33;23.33;12.10;99.90;;;;;;5014835;28;9566;-45
2022/01/15 08:30:57;;;;;;;;;20.33;20.33;12.00;99.90;;;;;;5013370;28;8826;-45
2022/01/15 08:33:27;;;;;;;;;24.33;23.00;12.00;99.90;;;;;;5017176;28;11577;-45
2022/01/15 08:35:57;;;;;;;;;19.50;19.50;12.00;99.90;;;;;;5015560;28;11532;-45
2022/01/15 08:38:32;;;;;;;;;14.50;14.50;12.00;99.90;;;;;;5015584;28;11625;-44
2022/01/15 08:41:22;;;;;;;;;14.25;14.25;12.00;99.90;;;;;;5013500;28;11533;-46
2022/01/15 08:43:53;;;;;;;;;10.75;10.75;12.00;99.90;;;;;;5016116;28;11620;-44
2022/01/15 08:46:24;;;;;;;;;15.50;15.50;11.90;99.90;;;;;;5015217;28;11616;-47
2022/01/15 08:48:56;;;;;;;;;15.50;15.50;11.90;99.90;;;;;;5016650;28;11583;-45
2022/01/15 08:51:26;;;;;;;;;18.00;18.00;11.80;99.90;;;;;;5001077;28;11661;-46
2022/01/15 08:53:56;;;;;;;;;20.00;20.00;11.80;99.90;;;;;;5012038;28;11476;-48
2022/01/15 08:56:27;;;;;;;;;22.00;22.00;11.80;99.90;;;;;;5017930;28;11646;-44
2022/01/15 08:58:57;;;;;;;;;24.00;22.67;11.60;99.90;;;;;;5015353;28;11551;-44
2022/01/15 09:01:27;;;;;;;;;16.25;16.25;11.70;99.90;;;;;;5017179;28;11545;-43
2022/01/15 09:03:58;;;;;;;;;12.00;9.50;11.70;99.90;;;;;;5015918;28;11549;-46
2022/01/15 09:06:29;;;;;;;;;8.00;8.00;11.70;99.90;;;;;;5013509;28;11696;-46
2022/01/15 09:09:00;;;;;;;;;11.50;10.50;11.70;99.90;;;;;;5014779;28;11632;-46
2022/01/15 09:11:32;;;;;;;;;10.25;10.25;11.60;99.90;;;;;;5016969;28;11553;-44
2022/01/15 09:14:03;;;;;;;;;10.00;10.00;11.60;99.90;;;;;;5017493;28;11514;-46
2022/01/15 09:16:34;;;;;;;;;7.75;7.75;11.60;99.90;;;;;;4999407;28;11471;-45
2022/01/15 09:19:06;;;;;;;;;7.75;7.75;11.50;99.90;;;;;;5016902;28;11509;-45
2022/01/15 09:21:37;;;;;;;;;9.25;9.25;11.60;99.90;;;;;;5015466;28;11639;-49
2022/01/15 09:24:07;;;;;;;;;11.00;11.00;11.50;99.90;;;;;;5013772;28;12334;-45
2022/01/15 09:32:17;;;;;;;;;11.50;10.00;11.40;99.90;;;;;;5016394;28;11894;-44
2022/01/15 09:34:48;;;;;;;;;9.25;9.25;11.40;99.90;;;;;;5015824;28;12176;-47
2022/01/15 09:37:19;;;;;;;;;12.00;12.00;11.40;99.90;;;;;;5014256;28;12740;-46
2022/01/15 09:39:50;;;;;;;;;10.25;8.00;11.40;99.90;;;;;;5016559;28;11685;-48
2022/01/15 09:42:22;;;;;;;;;8.00;8.00;11.40;99.90;;;;;;5016112;28;12368;-45
2022/01/15 09:44:58;;;;;;;;;9.00;9.00;11.30;99.90;;;;;;5013349;28;11979;-47
2022/01/15 09:47:29;;;;;;;;;7.75;7.75;11.20;99.90;;;;;;5015042;28;11561;-43
2022/01/15 09:50:01;;;;;;;;;7.50;7.50;11.20;99.90;;;;;;5015054;28;11540;-48
2022/01/15 09:52:33;;;;;;;;;11.25;11.00;11.10;99.90;;;;;;5017786;28;11591;-45
2022/01/15 09:55:07;;;;;;;;;8.50;8.50;11.20;99.90;;;;;;5016376;28;11599;-44
2022/01/15 09:57:39;;;;;;;;;9.25;9.25;11.20;99.90;;;;;;5016320;28;11647;-47
2022/01/15 10:00:15;;;;;;;;;11.00;9.75;11.20;99.90;;;;;;5012844;28;11534;-44
2022/01/15 10:02:46;;;;;;;;;10.75;10.75;11.20;99.90;;;;;;5009649;28;11484;-45
2022/01/15 10:05:18;;;;;;;;;11.25;11.25;11.20;99.90;;;;;;5018736;28;11800;-44
2022/01/15 10:08:12;;;;;;;;;6.00;6.00;11.10;99.90;;;;;;5017666;28;11524;-47
2022/01/15 10:10:53;;;;;;;;;10.75;10.75;11.00;99.90;;;;;;5014965;28;11509;-46
2022/01/15 10:13:30;;;;;;;;;11.25;11.25;11.00;99.90;;;;;;5000170;28;11518;-46
2022/01/15 10:16:02;;;;;;;;;10.50;7.75;11.00;99.90;;;;;;5012576;28;11546;-46
2022/01/15 10:18:42;;;;;;;;;8.25;8.25;10.90;99.90;;;;;;5012732;28;11527;-47
2022/01/15 10:21:14;;;;;;;;;5.00;4.25;10.90;99.90;;;;;;5014831;28;11509;-51
2022/01/15 10:23:51;;;;;;;;;11.00;11.00;11.00;99.90;;;;;;5014441;28;11641;-49
2022/01/15 10:26:26;;;;;;;;;9.50;9.50;11.00;99.90;;;;;;5014361;28;11536;-45
2022/01/15 10:29:00;;;;;;;;;11.75;10.75;11.00;99.90;;;;;;5003805;28;11630;-44
2022/01/15 10:31:42;;;;;;;;;8.50;8.50;11.00;99.90;;;;;;4997062;28;11541;-47
2022/01/15 10:34:32;;;;;;;;;8.75;8.75;11.00;99.90;;;;;;5011741;28;11506;-45
2022/01/15 10:37:07;;;;;;;;;14.50;12.75;11.00;99.90;;;;;;5013406;28;11553;-47
2022/01/15 10:39:39;;;;;;;;;10.25;10.25;10.90;99.90;;;;;;4998455;28;11604;-46
2022/01/15 10:42:22;;;;;;;;;12.75;11.00;11.00;99.90;;;;;;5000552;28;11552;-47
2022/01/15 10:44:54;;;;;;;;;10.25;10.25;10.90;99.90;;;;;;5014189;28;11527;-47
2022/01/15 10:47:29;;;;;;;;;12.50;12.50;10.90;99.90;;;;;;5015301;28;11536;-49
2022/01/15 10:50:03;;;;;;;;;12.50;12.50;10.90;99.90;;;;;;5013929;28;11519;-45
2022/01/15 10:52:33;;;;;;;;;10.25;10.00;10.90;99.90;;;;;;5008620;28;11629;-45
2022/01/15 10:55:16;;;;;;;;;10.50;10.50;10.90;99.90;;;;;;5017310;28;11557;-47
2022/01/15 10:57:55;;;;;;;;;10.25;10.25;10.80;99.90;;;;;;5017220;28;11619;-45
2022/01/15 11:00:30;;;;;;;;;8.00;8.00;10.80;99.90;;;;;;5018453;28;11519;-47
2022/01/15 11:03:08;;;;;;;;;9.25;9.25;10.80;99.90;;;;;;5014757;28;11524;-43
2022/01/15 11:05:46;;;;;;;;;10.00;10.00;10.80;99.90;;;;;;5016235;28;11526;-45
2022/01/15 11:08:21;;;;;;;;;10.00;10.00;10.80;99.90;;;;;;5018796;28;11526;-44
2022/01/15 11:10:57;;;;;;;;;10.25;10.25;10.70;99.90;;;;;;5013567;28;11541;-44
2022/01/15 11:13:35;;;;;;;;;10.25;10.25;10.70;99.90;;;;;;5017590;28;12225;-47
2022/01/15 11:16:17;;;;;;;;;12.50;12.00;10.60;99.90;;;;;;5018074;28;11579;-47
2022/01/15 11:18:50;;;;;;;;;11.50;11.50;10.60;99.90;;;;;;5016986;28;11720;-47
2022/01/15 11:21:24;;;;;;;;;10.25;10.25;10.70;99.90;;;;;;5018571;28;11556;-49
2022/01/15 11:24:03;;;;;;;;;12.00;12.00;10.70;99.90;;;;;;5001905;28;11572;-45
2022/01/15 11:26:36;;;;;;;;;11.50;11.50;10.70;99.90;;;;;;5017767;28;11557;-45
2022/01/15 11:29:07;;;;;;;;;9.00;9.00;10.70;99.90;;;;;;5017803;28;11518;-45
2022/01/15 11:31:43;;;;;;;;;9.00;9.00;10.70;99.90;;;;;;5025487;28;11812;-44
2022/01/15 11:34:16;;;;;;;;;10.25;10.25;10.60;99.90;;;;;;5004944;28;12199;-44
2022/01/15 11:36:47;;;;;;;;;11.75;11.75;10.50;99.90;;;;;;5023567;28;12306;-45
2022/01/15 11:39:22;;;;;;;;;10.50;10.50;10.50;99.90;;;;;;5010261;28;11481;-44
2022/01/15 11:41:55;;;;;;;;;13.00;13.00;10.40;99.90;;;;;;5016804;28;11580;-46
2022/01/15 11:44:33;;;;;;;;;11.00;10.25;10.50;99.90;;;;;;5017816;28;12283;-46
2022/01/15 11:47:17;;;;;;;;;6.25;6.25;10.50;99.90;;;;;;5017301;28;11688;-46
2022/01/15 11:49:53;;;;;;;;;9.00;9.00;10.50;99.90;;;;;;5016343;28;11496;-45
2022/01/15 11:52:24;;;;;;;;;6.75;6.75;10.40;99.90;;;;;;5017765;28;11518;-45
2022/01/15 11:54:54;;;;;;;;;10.00;10.00;10.50;99.90;;;;;;5022885;28;11489;-44
2022/01/15 11:57:50;;;;;;;;;9.00;9.00;10.50;99.90;;;;;;5015758;28;11500;-44
2022/01/15 12:00:27;;;;;;;;;12.25;12.25;10.40;99.90;;;;;;5016273;28;11479;-47
2022/01/15 12:03:09;;;;;;;;;11.75;9.75;10.30;99.90;;;;;;5018794;28;12316;-44
2022/01/15 12:05:44;;;;;;;;;11.25;11.00;10.30;99.90;;;;;;5015248;28;11546;-46
2022/01/15 12:08:14;;;;;;;;;11.00;11.00;10.30;99.90;;;;;;5019720;28;11691;-44
2022/01/15 12:10:47;;;;;;;;;8.75;8.75;10.30;99.90;;;;;;5017855;28;12276;-47
2022/01/15 12:13:23;;;;;;;;;10.75;10.75;10.30;99.90;;;;;;5016880;28;12374;-47
2022/01/15 12:16:19;;;;;;;;;9.25;9.25;10.30;99.90;;;;;;5013866;28;11537;-48
2022/01/15 12:18:50;;;;;;;;;9.50;9.50;10.30;99.90;;;;;;5014599;28;11521;-45
2022/01/15 12:21:46;;;;;;;;;9.75;9.00;10.30;99.90;;;;;;5020061;28;11523;-46
2022/01/15 12:24:44;;;;;;;;;10.50;10.50;10.30;99.90;;;;;;5015883;28;11475;-46
2022/01/15 12:27:16;;;;;;;;;9.50;9.50;10.30;99.90;;;;;;5004205;28;11597;-44
2022/01/15 12:29:47;;;;;;;;;10.50;10.50;10.30;99.90;;;;;;5015915;28;11576;-45
2022/01/15 12:32:40;;;;;;;;;11.00;11.00;10.30;99.90;;;;;;5016726;28;11517;-45
2022/01/15 12:35:18;;;;;;;;;9.00;9.00;10.30;99.90;;;;;;4997701;28;11543;-42
2022/01/15 12:38:13;;;;;;;;;12.50;12.50;10.20;99.90;;;;;;5016925;28;11649;-45
2022/01/15 12:40:56;;;;;;;;;8.25;8.25;10.30;99.90;;;;;;5014528;28;11547;-46
2022/01/15 12:43:33;;;;;;;;;8.00;8.00;10.20;99.90;;;;;;5016873;28;11496;-47
2022/01/15 12:46:06;;;;;;;;;6.00;6.00;10.20;99.90;;;;;;5018274;28;11559;-45
2022/01/15 12:48:40;;;;;;;;;10.50;10.50;10.20;99.90;;;;;;5004528;28;11493;-45
2022/01/15 12:51:14;;;;;;;;;10.75;10.75;10.20;99.90;;;;;;5015363;28;11529;-46
2022/01/15 12:53:49;;;;;;;;;3.50;3.50;10.20;99.90;;;;;;5021170;28;11526;-46
2022/01/15 12:56:21;;;;;;;;;10.75;9.75;10.10;99.90;;;;;;5015939;28;11545;-45
2022/01/15 12:58:55;;;;;;;;;9.75;9.75;10.10;99.90;;;;;;5015963;28;11758;-48
2022/01/15 13:01:27;;;;;;;;;6.50;6.50;10.10;99.90;;;;;;5019433;28;12345;-48
2022/01/15 13:04:00;;;;;;;;;7.25;7.25;10.00;99.90;;;;;;5016432;28;12283;-46
2022/01/15 13:06:31;;;;;;;;;11.50;11.50;10.00;99.90;;;;;;5017442;28;12238;-46
2022/01/15 13:09:01;;;;;;;;;9.75;9.75;10.00;99.90;;;;;;5000415;28;11554;-45
2022/01/15 13:11:32;;;;;;;;;11.75;11.75;10.00;99.90;;;;;;5016940;28;12385;-45
2022/01/15 13:14:07;;;;;;;;;7.75;7.75;9.90;99.90;;;;;;5016461;28;11583;-46
2022/01/15 13:16:38;;;;;;;;;9.50;9.50;9.90;99.90;;;;;;5016104;28;11610;-48
2022/01/15 13:19:13;;;;;;;;;11.25;11.25;9.90;99.90;;;;;;5018679;28;11562;-45
2022/01/15 13:21:46;;;;;;;;;13.00;13.00;10.00;99.90;;;;;;5014824;28;11577;-45
2022/01/15 13:24:16;;;;;;;;;9.75;9.75;9.90;99.90;;;;;;5016193;28;11681;-44
2022/01/15 13:26:49;;;;;;;;;11.75;11.75;9.90;99.90;;;;;;5018792;28;11495;-45
2022/01/15 13:29:24;;;;;;;;;11.75;10.25;9.90;99.90;;;;;;5018087;28;11558;-45